Aérodrome :
LOGIN :

S'inscrire | Disclaimer

   EN    FR    IT 

 










Légende :    VFR   VFR Marginal   IFR   IFR Intensif   IFR Très Intensif
Visi : 
Plafond : 
>= 8 km
>= 3000ft
5 à 8 km
1000 à 3000 ft
1500m à 5 km
500 à 1000 ft
800 à 1500m
200 à 500 ft
< 800m
< 200 ft
Symboles :   Orages  Brouillard  Fortes neiges  Fortes précipitations  Vent > 20 kt
SIGMETs :   Divers  Orages  Givrage  Turbulence  Onde Orograph.  Cendres Volcan.






- Altitude de l'aérodrome : 408 ft
- Code IATA : FKB


EDSB - Karlsruhe Baden Baden

DERNIER METAR :
  • 242150Z VRB02KT 9999 BKN046 OVC060 00/M02 Q1001

METARs EXPIRÉS :
  • 242120Z 06003KT CAVOK M01/M03 Q1000
  • 242050Z VRB02KT CAVOK M01/M03 Q1001
  • 242020Z 05002KT CAVOK M01/M03 Q1001
  • 241950Z VRB02KT CAVOK 00/M03 Q1002
  • 241920Z VRB03KT CAVOK M01/M04 Q1001

TAF TAF EDSB
Valide du 24 à 18h jusqu'au 25 à 18h UTC


241700Z 2418/2518 21004KT 9999 SCT030
TEMPO 2500/2518 3000 -SN BKN008
PROB30
TEMPO 2507/2511 2000 SN BKN004



MET'MAP, la Météo Aéronautique d'un coup d'oeil ! - Copyright ORBIFLY Décembre 2007 - Disclaimer

ORBIFLY MET'MAP TEAM :

Programmation & Développement : Alexandra Zaïnal
Sur une idée originale de : Baudouin d'Aumeries
Assistance à la programmation : Marc-Olivier Méhu
Soutien technique & logistique : Manuel Goepfert

Contact : metmap@orbifly.com




SOURCES & CREDITS :

   NOAA